sensor_id;sensor_type;location;lat;lon;timestamp;pressure;altitude;pressure_sealevel;temperature;humidity
77975;BME280;67164;51.202;0.278;2023-01-24T00:00:12;103467.20;;;20.37;33.86
77975;BME280;67164;51.202;0.278;2023-01-24T00:02:34;103466.19;;;20.61;33.82
77975;BME280;67164;51.202;0.278;2023-01-24T00:05:00;103469.12;;;20.61;33.80
77975;BME280;67164;51.202;0.278;2023-01-24T00:07:26;103468.49;;;20.75;33.97
77975;BME280;67164;51.202;0.278;2023-01-24T00:09:52;103467.52;;;20.43;34.01
77975;BME280;67164;51.202;0.278;2023-01-24T00:12:17;103469.67;;;20.42;33.94
77975;BME280;67164;51.202;0.278;2023-01-24T00:14:46;103469.20;;;20.44;33.93
77975;BME280;67164;51.202;0.278;2023-01-24T00:17:18;103469.13;;;20.61;33.97
77975;BME280;67164;51.202;0.278;2023-01-24T00:19:34;103466.84;;;20.33;33.99
77975;BME280;67164;51.202;0.278;2023-01-24T00:21:59;103466.36;;;20.60;33.92
77975;BME280;67164;51.202;0.278;2023-01-24T00:24:28;103466.59;;;20.56;33.90
77975;BME280;67164;51.202;0.278;2023-01-24T00:26:50;103467.17;;;19.92;34.09
77975;BME280;67164;51.202;0.278;2023-01-24T00:29:17;103468.15;;;20.16;34.07
77975;BME280;67164;51.202;0.278;2023-01-24T00:31:42;103471.66;;;20.42;34.00
77975;BME280;67164;51.202;0.278;2023-01-24T00:34:08;103469.10;;;20.28;34.12
77975;BME280;67164;51.202;0.278;2023-01-24T00:36:34;103465.65;;;20.19;34.19
77975;BME280;67164;51.202;0.278;2023-01-24T00:39:00;103465.10;;;20.12;34.24
77975;BME280;67164;51.202;0.278;2023-01-24T00:41:25;103465.40;;;20.22;34.15
77975;BME280;67164;51.202;0.278;2023-01-24T00:43:51;103465.36;;;20.15;34.17
77975;BME280;67164;51.202;0.278;2023-01-24T00:46:16;103463.24;;;20.36;34.16
77975;BME280;67164;51.202;0.278;2023-01-24T00:48:42;103465.38;;;20.05;34.28
77975;BME280;67164;51.202;0.278;2023-01-24T00:51:08;103465.20;;;19.92;34.32
77975;BME280;67164;51.202;0.278;2023-01-24T00:53:34;103462.01;;;19.92;34.31
77975;BME280;67164;51.202;0.278;2023-01-24T00:55:59;103457.42;;;20.03;34.43
77975;BME280;67164;51.202;0.278;2023-01-24T00:58:25;103459.67;;;19.85;34.35
77975;BME280;67164;51.202;0.278;2023-01-24T01:00:55;103453.96;;;19.80;34.38
77975;BME280;67164;51.202;0.278;2023-01-24T01:03:18;103452.71;;;19.74;34.40
77975;BME280;67164;51.202;0.278;2023-01-24T01:05:42;103452.03;;;19.93;34.44
77975;BME280;67164;51.202;0.278;2023-01-24T01:08:06;103450.78;;;19.68;34.44
77975;BME280;67164;51.202;0.278;2023-01-24T01:10:33;103445.99;;;19.88;34.46
77975;BME280;67164;51.202;0.278;2023-01-24T01:12:58;103443.87;;;19.86;34.49
77975;BME280;67164;51.202;0.278;2023-01-24T01:15:23;103440.56;;;19.64;34.44
77975;BME280;67164;51.202;0.278;2023-01-24T01:17:48;103444.18;;;19.63;34.43
77975;BME280;67164;51.202;0.278;2023-01-24T01:20:13;103443.74;;;19.55;34.46
77975;BME280;67164;51.202;0.278;2023-01-24T01:22:39;103444.47;;;19.76;34.48
77975;BME280;67164;51.202;0.278;2023-01-24T01:25:06;103444.85;;;19.51;34.49
77975;BME280;67164;51.202;0.278;2023-01-24T01:27:31;103443.60;;;19.50;34.46
77975;BME280;67164;51.202;0.278;2023-01-24T01:29:56;103445.65;;;19.62;34.56
77975;BME280;67164;51.202;0.278;2023-01-24T01:32:22;103445.49;;;19.47;34.46
77975;BME280;67164;51.202;0.278;2023-01-24T01:34:47;103446.18;;;19.69;34.44
77975;BME280;67164;51.202;0.278;2023-01-24T01:37:13;103450.29;;;19.77;34.54
77975;BME280;67164;51.202;0.278;2023-01-24T01:39:39;103450.32;;;19.46;34.60
77975;BME280;67164;51.202;0.278;2023-01-24T01:42:05;103449.81;;;19.25;34.56
77975;BME280;67164;51.202;0.278;2023-01-24T01:44:31;103450.33;;;19.38;34.66
77975;BME280;67164;51.202;0.278;2023-01-24T01:46:56;103453.17;;;19.46;34.59
77975;BME280;67164;51.202;0.278;2023-01-24T01:49:24;103453.49;;;19.23;34.59
77975;BME280;67164;51.202;0.278;2023-01-24T01:51:49;103451.17;;;19.40;34.59
77975;BME280;67164;51.202;0.278;2023-01-24T01:54:20;103451.04;;;19.59;34.66
77975;BME280;67164;51.202;0.278;2023-01-24T01:56:43;103450.52;;;18.87;34.66
77975;BME280;67164;51.202;0.278;2023-01-24T01:59:09;103448.44;;;19.66;34.53
77975;BME280;67164;51.202;0.278;2023-01-24T02:01:30;103447.85;;;19.33;34.62
77975;BME280;67164;51.202;0.278;2023-01-24T02:04:03;103447.39;;;19.48;34.69
77975;BME280;67164;51.202;0.278;2023-01-24T02:06:31;103446.86;;;19.27;34.66
77975;BME280;67164;51.202;0.278;2023-01-24T02:08:47;103443.36;;;19.28;34.65
77975;BME280;67164;51.202;0.278;2023-01-24T02:11:13;103444.91;;;19.20;34.68
77975;BME280;67164;51.202;0.278;2023-01-24T02:13:39;103448.02;;;19.17;34.68
77975;BME280;67164;51.202;0.278;2023-01-24T02:16:06;103449.81;;;19.05;34.79
77975;BME280;67164;51.202;0.278;2023-01-24T02:18:30;103454.59;;;19.05;34.86
77975;BME280;67164;51.202;0.278;2023-01-24T02:20:56;103457.27;;;19.25;34.88
77975;BME280;67164;51.202;0.278;2023-01-24T02:23:27;103458.80;;;19.19;34.91
77975;BME280;67164;51.202;0.278;2023-01-24T02:28:12;103465.50;;;19.23;34.87
77975;BME280;67164;51.202;0.278;2023-01-24T02:30:38;103460.01;;;19.18;34.90
77975;BME280;67164;51.202;0.278;2023-01-24T02:33:08;103460.98;;;19.21;34.88
77975;BME280;67164;51.202;0.278;2023-01-24T02:35:31;103457.52;;;18.96;34.87
77975;BME280;67164;51.202;0.278;2023-01-24T02:37:58;103454.04;;;18.88;34.94
77975;BME280;67164;51.202;0.278;2023-01-24T02:40:20;103452.41;;;19.17;34.90
77975;BME280;67164;51.202;0.278;2023-01-24T02:42:46;103454.06;;;19.07;35.01
77975;BME280;67164;51.202;0.278;2023-01-24T02:45:18;103453.90;;;18.99;35.02
77975;BME280;67164;51.202;0.278;2023-01-24T02:47:41;103455.23;;;19.04;34.99
77975;BME280;67164;51.202;0.278;2023-01-24T02:50:05;103450.86;;;19.02;34.97
77975;BME280;67164;51.202;0.278;2023-01-24T02:52:33;103446.25;;;19.05;34.95
77975;BME280;67164;51.202;0.278;2023-01-24T02:54:55;103445.44;;;19.01;35.01
77975;BME280;67164;51.202;0.278;2023-01-24T02:57:21;103446.73;;;18.99;35.01
77975;BME280;67164;51.202;0.278;2023-01-24T02:59:46;103449.04;;;18.72;35.02
77975;BME280;67164;51.202;0.278;2023-01-24T03:02:12;103452.64;;;18.90;35.08
77975;BME280;67164;51.202;0.278;2023-01-24T03:04:38;103455.69;;;18.59;35.12
77975;BME280;67164;51.202;0.278;2023-01-24T03:07:04;103454.22;;;18.90;35.04
77975;BME280;67164;51.202;0.278;2023-01-24T03:09:29;103453.22;;;18.78;35.15
77975;BME280;67164;51.202;0.278;2023-01-24T03:11:55;103453.48;;;18.99;35.23
77975;BME280;67164;51.202;0.278;2023-01-24T03:14:21;103448.94;;;18.69;35.25
77975;BME280;67164;51.202;0.278;2023-01-24T03:16:47;103448.21;;;18.56;35.35
77975;BME280;67164;51.202;0.278;2023-01-24T03:19:12;103450.31;;;18.60;35.36
77975;BME280;67164;51.202;0.278;2023-01-24T03:21:38;103449.76;;;18.64;35.29
77975;BME280;67164;51.202;0.278;2023-01-24T03:24:05;103452.98;;;18.63;35.25
77975;BME280;67164;51.202;0.278;2023-01-24T03:26:30;103451.23;;;18.52;35.39
77975;BME280;67164;51.202;0.278;2023-01-24T03:28:55;103451.61;;;18.61;35.25
77975;BME280;67164;51.202;0.278;2023-01-24T03:31:21;103451.73;;;18.72;35.21
77975;BME280;67164;51.202;0.278;2023-01-24T03:33:46;103448.10;;;18.58;35.30
77975;BME280;67164;51.202;0.278;2023-01-24T03:36:12;103446.94;;;18.49;35.41
77975;BME280;67164;51.202;0.278;2023-01-24T03:38:38;103445.20;;;18.61;35.49
77975;BME280;67164;51.202;0.278;2023-01-24T03:41:04;103444.94;;;18.40;35.48
77975;BME280;67164;51.202;0.278;2023-01-24T03:43:30;103444.08;;;18.39;35.44
77975;BME280;67164;51.202;0.278;2023-01-24T03:45:55;103442.94;;;18.61;35.44
77975;BME280;67164;51.202;0.278;2023-01-24T03:48:20;103443.32;;;18.29;35.55
77975;BME280;67164;51.202;0.278;2023-01-24T03:50:46;103444.55;;;18.36;35.55
77975;BME280;67164;51.202;0.278;2023-01-24T03:53:12;103443.72;;;18.29;35.53
77975;BME280;67164;51.202;0.278;2023-01-24T03:55:38;103442.82;;;18.21;35.67
77975;BME280;67164;51.202;0.278;2023-01-24T03:58:04;103442.63;;;18.44;35.69
77975;BME280;67164;51.202;0.278;2023-01-24T04:00:30;103442.04;;;18.12;35.77
77975;BME280;67164;51.202;0.278;2023-01-24T04:02:55;103444.46;;;18.30;35.87
77975;BME280;67164;51.202;0.278;2023-01-24T04:05:21;103442.83;;;18.46;35.63
77975;BME280;67164;51.202;0.278;2023-01-24T04:07:46;103444.02;;;18.58;35.80
77975;BME280;67164;51.202;0.278;2023-01-24T04:10:12;103444.98;;;18.03;35.83
77975;BME280;67164;51.202;0.278;2023-01-24T04:12:40;103443.46;;;18.45;35.90
77975;BME280;67164;51.202;0.278;2023-01-24T04:15:04;103443.08;;;18.03;35.90
77975;BME280;67164;51.202;0.278;2023-01-24T04:17:29;103447.93;;;18.20;35.83
77975;BME280;67164;51.202;0.278;2023-01-24T04:19:55;103448.56;;;18.16;35.86
77975;BME280;67164;51.202;0.278;2023-01-24T04:22:29;103446.30;;;17.77;36.01
77975;BME280;67164;51.202;0.278;2023-01-24T04:24:46;103441.95;;;18.07;36.00
77975;BME280;67164;51.202;0.278;2023-01-24T04:27:12;103442.69;;;18.17;35.89
77975;BME280;67164;51.202;0.278;2023-01-24T04:29:37;103446.05;;;18.08;35.93
77975;BME280;67164;51.202;0.278;2023-01-24T04:32:04;103441.16;;;17.93;36.15
77975;BME280;67164;51.202;0.278;2023-01-24T04:34:29;103440.28;;;17.99;36.17
77975;BME280;67164;51.202;0.278;2023-01-24T04:36:55;103444.15;;;18.14;36.15
77975;BME280;67164;51.202;0.278;2023-01-24T04:39:21;103445.48;;;18.07;36.28
77975;BME280;67164;51.202;0.278;2023-01-24T04:41:47;103445.94;;;17.83;36.22
77975;BME280;67164;51.202;0.278;2023-01-24T04:44:13;103447.95;;;17.79;36.29
77975;BME280;67164;51.202;0.278;2023-01-24T04:46:39;103449.20;;;17.78;36.24
77975;BME280;67164;51.202;0.278;2023-01-24T04:49:04;103445.51;;;17.83;36.21
77975;BME280;67164;51.202;0.278;2023-01-24T04:51:30;103444.84;;;17.95;36.24
77975;BME280;67164;51.202;0.278;2023-01-24T04:53:56;103445.90;;;17.53;36.29
77975;BME280;67164;51.202;0.278;2023-01-24T04:56:22;103444.65;;;18.07;36.18
77975;BME280;67164;51.202;0.278;2023-01-24T04:58:48;103444.44;;;17.85;36.41
77975;BME280;67164;51.202;0.278;2023-01-24T05:01:13;103441.37;;;17.82;36.49
77975;BME280;67164;51.202;0.278;2023-01-24T05:03:39;103436.68;;;17.94;36.38
77975;BME280;67164;51.202;0.278;2023-01-24T05:06:05;103437.25;;;17.64;36.38
77975;BME280;67164;51.202;0.278;2023-01-24T05:08:31;103438.34;;;17.85;36.34
77975;BME280;67164;51.202;0.278;2023-01-24T05:10:57;103437.79;;;17.88;36.38
77975;BME280;67164;51.202;0.278;2023-01-24T05:13:23;103435.49;;;17.79;36.45
77975;BME280;67164;51.202;0.278;2023-01-24T05:15:48;103438.02;;;17.79;36.41
77975;BME280;67164;51.202;0.278;2023-01-24T05:18:13;103435.76;;;17.50;36.51
77975;BME280;67164;51.202;0.278;2023-01-24T05:20:39;103436.26;;;17.56;36.44
77975;BME280;67164;51.202;0.278;2023-01-24T05:23:05;103439.98;;;17.62;36.34
77975;BME280;67164;51.202;0.278;2023-01-24T05:25:30;103442.71;;;17.54;36.45
77975;BME280;67164;51.202;0.278;2023-01-24T05:27:56;103443.02;;;17.39;36.59
77975;BME280;67164;51.202;0.278;2023-01-24T05:30:22;103442.88;;;17.63;36.62
77975;BME280;67164;51.202;0.278;2023-01-24T05:32:47;103439.00;;;17.37;36.68
77975;BME280;67164;51.202;0.278;2023-01-24T05:35:14;103438.12;;;17.62;36.64
77975;BME280;67164;51.202;0.278;2023-01-24T05:37:39;103437.32;;;17.42;36.55
77975;BME280;67164;51.202;0.278;2023-01-24T05:40:06;103438.85;;;17.57;36.62
77975;BME280;67164;51.202;0.278;2023-01-24T05:42:31;103438.78;;;17.65;36.60
77975;BME280;67164;51.202;0.278;2023-01-24T05:45:01;103438.74;;;17.70;36.76
77975;BME280;67164;51.202;0.278;2023-01-24T05:47:22;103442.62;;;17.53;36.68
77975;BME280;67164;51.202;0.278;2023-01-24T05:49:48;103444.95;;;17.52;36.70
77975;BME280;67164;51.202;0.278;2023-01-24T05:52:14;103446.47;;;17.47;36.69
77975;BME280;67164;51.202;0.278;2023-01-24T05:54:39;103444.92;;;17.26;36.67
77975;BME280;67164;51.202;0.278;2023-01-24T05:57:05;103445.03;;;17.51;36.66
77975;BME280;67164;51.202;0.278;2023-01-24T05:59:32;103447.64;;;17.73;36.72
77975;BME280;67164;51.202;0.278;2023-01-24T06:01:56;103449.79;;;17.60;36.55
77975;BME280;67164;51.202;0.278;2023-01-24T06:04:27;103451.92;;;17.60;36.55
77975;BME280;67164;51.202;0.278;2023-01-24T06:06:48;103451.88;;;17.30;36.63
77975;BME280;67164;51.202;0.278;2023-01-24T06:09:14;103453.14;;;17.26;36.64
77975;BME280;67164;51.202;0.278;2023-01-24T06:11:40;103456.25;;;17.41;36.69
77975;BME280;67164;51.202;0.278;2023-01-24T06:14:06;103460.86;;;17.34;36.88
77975;BME280;67164;51.202;0.278;2023-01-24T06:16:31;103462.42;;;17.37;36.83
77975;BME280;67164;51.202;0.278;2023-01-24T06:18:57;103464.16;;;17.42;36.76
77975;BME280;67164;51.202;0.278;2023-01-24T06:21:34;103462.91;;;17.09;36.84
77975;BME280;67164;51.202;0.278;2023-01-24T06:23:49;103467.46;;;17.41;36.76
77975;BME280;67164;51.202;0.278;2023-01-24T06:26:15;103471.97;;;17.34;36.82
77975;BME280;67164;51.202;0.278;2023-01-24T06:28:41;103476.76;;;17.27;36.84
77975;BME280;67164;51.202;0.278;2023-01-24T06:31:12;103478.69;;;17.15;36.99
77975;BME280;67164;51.202;0.278;2023-01-24T06:33:39;103477.14;;;17.32;36.81
77975;BME280;67164;51.202;0.278;2023-01-24T06:36:10;103481.63;;;17.49;36.85
77975;BME280;67164;51.202;0.278;2023-01-24T06:38:24;103479.77;;;17.27;36.80
77975;BME280;67164;51.202;0.278;2023-01-24T06:40:52;103482.30;;;17.55;36.75
77975;BME280;67164;51.202;0.278;2023-01-24T06:43:16;103482.52;;;17.18;36.86
77975;BME280;67164;51.202;0.278;2023-01-24T06:45:41;103485.60;;;17.40;36.91
77975;BME280;67164;51.202;0.278;2023-01-24T06:48:06;103483.98;;;17.10;36.97
77975;BME280;67164;51.202;0.278;2023-01-24T06:50:33;103486.39;;;17.23;36.90
77975;BME280;67164;51.202;0.278;2023-01-24T06:53:01;103487.14;;;17.36;36.95
77975;BME280;67164;51.202;0.278;2023-01-24T06:55:24;103485.71;;;17.35;37.07
77975;BME280;67164;51.202;0.278;2023-01-24T06:57:54;103489.64;;;17.36;36.94
77975;BME280;67164;51.202;0.278;2023-01-24T07:00:16;103483.74;;;17.34;36.94
77975;BME280;67164;51.202;0.278;2023-01-24T07:02:42;103484.09;;;17.08;36.95
77975;BME280;67164;51.202;0.278;2023-01-24T07:05:07;103483.56;;;17.10;36.91
77975;BME280;67164;51.202;0.278;2023-01-24T07:07:33;103486.31;;;17.18;37.09
77975;BME280;67164;51.202;0.278;2023-01-24T07:09:58;103489.68;;;17.00;37.05
77975;BME280;67164;51.202;0.278;2023-01-24T07:12:24;103491.57;;;17.21;37.09
77975;BME280;67164;51.202;0.278;2023-01-24T07:14:50;103492.99;;;17.07;36.91
77975;BME280;67164;51.202;0.278;2023-01-24T07:17:16;103492.04;;;16.95;37.19
77975;BME280;67164;51.202;0.278;2023-01-24T07:19:42;103498.16;;;17.16;37.03
77975;BME280;67164;51.202;0.278;2023-01-24T07:22:11;103499.78;;;16.67;37.08
77975;BME280;67164;51.202;0.278;2023-01-24T07:24:34;103499.81;;;16.99;36.98
77975;BME280;67164;51.202;0.278;2023-01-24T07:26:59;103508.13;;;17.36;37.09
77975;BME280;67164;51.202;0.278;2023-01-24T07:29:24;103505.00;;;17.23;36.99
77975;BME280;67164;51.202;0.278;2023-01-24T07:31:50;103509.40;;;17.11;37.07
77975;BME280;67164;51.202;0.278;2023-01-24T07:34:16;103512.90;;;17.21;37.01
77975;BME280;67164;51.202;0.278;2023-01-24T07:36:41;103516.12;;;17.20;37.04
77975;BME280;67164;51.202;0.278;2023-01-24T07:39:06;103513.96;;;16.89;37.09
77975;BME280;67164;51.202;0.278;2023-01-24T07:41:32;103518.03;;;17.12;37.04
77975;BME280;67164;51.202;0.278;2023-01-24T07:43:58;103520.83;;;16.79;37.14
77975;BME280;67164;51.202;0.278;2023-01-24T07:46:24;103524.36;;;16.92;37.32
77975;BME280;67164;51.202;0.278;2023-01-24T07:48:50;103526.31;;;17.40;37.10
77975;BME280;67164;51.202;0.278;2023-01-24T07:51:16;103526.80;;;16.83;37.05
77975;BME280;67164;51.202;0.278;2023-01-24T07:53:41;103528.31;;;17.05;37.15
77975;BME280;67164;51.202;0.278;2023-01-24T07:56:08;103530.40;;;16.79;37.17
77975;BME280;67164;51.202;0.278;2023-01-24T07:58:33;103532.90;;;17.09;37.00
77975;BME280;67164;51.202;0.278;2023-01-24T08:00:59;103532.11;;;17.59;36.83
77975;BME280;67164;51.202;0.278;2023-01-24T08:03:25;103537.37;;;17.60;36.44
77975;BME280;67164;51.202;0.278;2023-01-24T08:05:50;103541.44;;;17.68;36.29
77975;BME280;67164;51.202;0.278;2023-01-24T08:08:16;103542.54;;;17.57;36.23
77975;BME280;67164;51.202;0.278;2023-01-24T08:10:41;103538.87;;;17.96;35.84
77975;BME280;67164;51.202;0.278;2023-01-24T08:13:20;103543.33;;;18.15;35.96
77975;BME280;67164;51.202;0.278;2023-01-24T08:15:32;103543.35;;;18.17;36.23
77975;BME280;67164;51.202;0.278;2023-01-24T08:18:01;103540.10;;;17.88;36.71
77975;BME280;67164;51.202;0.278;2023-01-24T08:20:24;103544.54;;;17.90;36.88
77975;BME280;67164;51.202;0.278;2023-01-24T08:22:54;103549.12;;;18.33;36.80
77975;BME280;67164;51.202;0.278;2023-01-24T08:25:16;103550.03;;;18.02;37.01
77975;BME280;67164;51.202;0.278;2023-01-24T08:27:42;103552.28;;;18.28;37.06
77975;BME280;67164;51.202;0.278;2023-01-24T08:30:08;103556.91;;;18.54;36.93
77975;BME280;67164;51.202;0.278;2023-01-24T08:32:33;103558.42;;;18.37;36.92
77975;BME280;67164;51.202;0.278;2023-01-24T08:34:59;103562.14;;;18.71;36.88
77975;BME280;67164;51.202;0.278;2023-01-24T08:37:25;103565.29;;;18.99;36.45
77975;BME280;67164;51.202;0.278;2023-01-24T08:39:51;103568.91;;;18.85;36.03
77975;BME280;67164;51.202;0.278;2023-01-24T08:42:18;103574.30;;;19.13;35.72
77975;BME280;67164;51.202;0.278;2023-01-24T08:44:42;103577.24;;;19.21;35.75
77975;BME280;67164;51.202;0.278;2023-01-24T08:47:08;103582.80;;;19.33;35.67
77975;BME280;67164;51.202;0.278;2023-01-24T08:49:34;103581.36;;;19.30;35.77
77975;BME280;67164;51.202;0.278;2023-01-24T08:51:59;103585.17;;;19.75;35.47
77975;BME280;67164;51.202;0.278;2023-01-24T08:54:26;103585.78;;;19.58;35.38
77975;BME280;67164;51.202;0.278;2023-01-24T08:56:51;103586.77;;;19.61;35.33
77975;BME280;67164;51.202;0.278;2023-01-24T08:59:17;103588.53;;;19.54;35.39
77975;BME280;67164;51.202;0.278;2023-01-24T09:01:42;103588.32;;;19.58;35.28
77975;BME280;67164;51.202;0.278;2023-01-24T09:04:09;103582.65;;;19.68;35.19
77975;BME280;67164;51.202;0.278;2023-01-24T09:06:34;103578.40;;;19.73;35.70
77975;BME280;67164;51.202;0.278;2023-01-24T09:09:00;103578.92;;;19.81;36.31
77975;BME280;67164;51.202;0.278;2023-01-24T09:11:27;103587.17;;;19.90;36.02
77975;BME280;67164;51.202;0.278;2023-01-24T09:13:52;103588.49;;;20.08;35.79
77975;BME280;67164;51.202;0.278;2023-01-24T09:16:17;103587.27;;;20.24;35.68
77975;BME280;67164;51.202;0.278;2023-01-24T09:18:43;103588.52;;;20.20;35.42
77975;BME280;67164;51.202;0.278;2023-01-24T09:21:10;103587.77;;;20.03;35.17
77975;BME280;67164;51.202;0.278;2023-01-24T09:23:35;103588.15;;;20.30;35.10
77975;BME280;67164;51.202;0.278;2023-01-24T09:26:01;103589.17;;;19.95;35.20
77975;BME280;67164;51.202;0.278;2023-01-24T09:28:27;103586.20;;;19.78;35.34
77975;BME280;67164;51.202;0.278;2023-01-24T09:30:52;103580.66;;;19.89;35.22
77975;BME280;67164;51.202;0.278;2023-01-24T09:33:18;103578.10;;;20.39;34.90
77975;BME280;67164;51.202;0.278;2023-01-24T09:35:52;103580.39;;;20.05;36.00
77975;BME280;67164;51.202;0.278;2023-01-24T09:38:10;103583.24;;;20.14;38.00
77975;BME280;67164;51.202;0.278;2023-01-24T09:40:43;103577.35;;;20.46;38.90
77975;BME280;67164;51.202;0.278;2023-01-24T09:43:06;103578.72;;;20.33;39.54
77975;BME280;67164;51.202;0.278;2023-01-24T09:45:30;103583.98;;;20.05;40.31
77975;BME280;67164;51.202;0.278;2023-01-24T09:47:54;103578.99;;;20.08;40.14
77975;BME280;67164;51.202;0.278;2023-01-24T09:50:20;103581.52;;;20.01;39.59
77975;BME280;67164;51.202;0.278;2023-01-24T09:52:45;103577.06;;;20.61;38.46
77975;BME280;67164;51.202;0.278;2023-01-24T09:55:13;103577.21;;;20.54;38.23
77975;BME280;67164;51.202;0.278;2023-01-24T09:57:42;103576.56;;;20.28;37.86
77975;BME280;67164;51.202;0.278;2023-01-24T10:00:03;103574.51;;;20.28;37.51
77975;BME280;67164;51.202;0.278;2023-01-24T10:02:33;103575.06;;;20.52;37.24
77975;BME280;67164;51.202;0.278;2023-01-24T10:04:50;103576.10;;;20.27;37.02
77975;BME280;67164;51.202;0.278;2023-01-24T10:09:54;103573.47;;;20.25;36.65
77975;BME280;67164;51.202;0.278;2023-01-24T10:12:14;103571.17;;;20.25;36.47
77975;BME280;67164;51.202;0.278;2023-01-24T10:14:43;103573.83;;;20.31;36.37
77975;BME280;67164;51.202;0.278;2023-01-24T10:19:36;103576.04;;;20.35;36.27
77975;BME280;67164;51.202;0.278;2023-01-24T10:24:32;103580.91;;;20.02;36.21
77975;BME280;67164;51.202;0.278;2023-01-24T10:26:44;103578.09;;;19.97;36.01
77975;BME280;67164;51.202;0.278;2023-01-24T10:29:14;103585.27;;;19.85;36.13
77975;BME280;67164;51.202;0.278;2023-01-24T10:31:34;103578.12;;;20.17;35.83
77975;BME280;67164;51.202;0.278;2023-01-24T10:34:08;103580.49;;;20.17;35.83
77975;BME280;67164;51.202;0.278;2023-01-24T10:36:29;103587.89;;;19.67;35.97
77975;BME280;67164;51.202;0.278;2023-01-24T10:38:48;103589.47;;;19.59;36.07
77975;BME280;67164;51.202;0.278;2023-01-24T10:41:17;103588.44;;;19.60;36.45
77975;BME280;67164;51.202;0.278;2023-01-24T10:43:41;103590.94;;;19.90;36.50
77975;BME280;67164;51.202;0.278;2023-01-24T10:46:15;103590.15;;;19.80;36.45
77975;BME280;67164;51.202;0.278;2023-01-24T10:48:39;103594.06;;;19.94;36.25
77975;BME280;67164;51.202;0.278;2023-01-24T10:51:09;103594.36;;;19.95;36.21
77975;BME280;67164;51.202;0.278;2023-01-24T10:53:29;103596.28;;;20.21;36.14
77975;BME280;67164;51.202;0.278;2023-01-24T10:55:48;103596.36;;;20.09;36.09
77975;BME280;67164;51.202;0.278;2023-01-24T11:01:07;103587.39;;;20.30;35.91
77975;BME280;67164;51.202;0.278;2023-01-24T11:03:17;103586.95;;;20.37;35.90
77975;BME280;67164;51.202;0.278;2023-01-24T11:05:42;103588.36;;;20.80;35.65
77975;BME280;67164;51.202;0.278;2023-01-24T11:08:01;103585.85;;;20.73;35.44
77975;BME280;67164;51.202;0.278;2023-01-24T11:10:26;103581.02;;;21.00;35.37
77975;BME280;67164;51.202;0.278;2023-01-24T11:12:51;103576.02;;;21.31;35.12
77975;BME280;67164;51.202;0.278;2023-01-24T11:15:18;103580.17;;;21.02;35.30
77975;BME280;67164;51.202;0.278;2023-01-24T11:17:40;103577.37;;;20.71;35.27
77975;BME280;67164;51.202;0.278;2023-01-24T11:20:20;103576.20;;;20.88;35.37
77975;BME280;67164;51.202;0.278;2023-01-24T11:22:32;103573.23;;;21.28;35.34
77975;BME280;67164;51.202;0.278;2023-01-24T11:25:00;103572.27;;;21.31;34.76
77975;BME280;67164;51.202;0.278;2023-01-24T11:27:23;103568.08;;;21.05;35.17
77975;BME280;67164;51.202;0.278;2023-01-24T11:32:33;103568.30;;;21.44;34.78
77975;BME280;67164;51.202;0.278;2023-01-24T11:34:46;103567.29;;;21.01;34.63
77975;BME280;67164;51.202;0.278;2023-01-24T11:37:20;103566.94;;;21.29;34.83
77975;BME280;67164;51.202;0.278;2023-01-24T11:39:40;103563.13;;;21.00;34.99
77975;BME280;67164;51.202;0.278;2023-01-24T11:42:01;103560.24;;;21.32;35.33
77975;BME280;67164;51.202;0.278;2023-01-24T11:44:42;103560.33;;;21.24;35.36
77975;BME280;67164;51.202;0.278;2023-01-24T11:46:52;103559.43;;;21.55;35.22
77975;BME280;67164;51.202;0.278;2023-01-24T11:49:30;103555.09;;;21.69;34.87
77975;BME280;67164;51.202;0.278;2023-01-24T11:51:49;103554.71;;;21.70;34.43
77975;BME280;67164;51.202;0.278;2023-01-24T11:54:23;103550.90;;;21.75;34.15
77975;BME280;67164;51.202;0.278;2023-01-24T11:56:40;103547.58;;;21.92;33.91
77975;BME280;67164;51.202;0.278;2023-01-24T11:59:23;103545.60;;;22.03;33.55
77975;BME280;67164;51.202;0.278;2023-01-24T12:01:33;103541.24;;;21.73;33.75
77975;BME280;67164;51.202;0.278;2023-01-24T12:03:59;103541.32;;;21.81;33.55
77975;BME280;67164;51.202;0.278;2023-01-24T12:06:28;103545.93;;;21.22;33.82
77975;BME280;67164;51.202;0.278;2023-01-24T12:09:02;103542.81;;;21.15;34.12
77975;BME280;67164;51.202;0.278;2023-01-24T12:11:15;103540.51;;;20.86;33.84
77975;BME280;67164;51.202;0.278;2023-01-24T12:13:39;103537.02;;;21.22;34.09
77975;BME280;67164;51.202;0.278;2023-01-24T12:16:07;103533.29;;;21.14;33.77
77975;BME280;67164;51.202;0.278;2023-01-24T12:18:34;103532.44;;;20.88;33.89
77975;BME280;67164;51.202;0.278;2023-01-24T12:20:58;103530.39;;;21.09;33.96
77975;BME280;67164;51.202;0.278;2023-01-24T12:23:19;103525.89;;;20.96;34.12
77975;BME280;67164;51.202;0.278;2023-01-24T12:25:39;103522.14;;;20.76;34.26
77975;BME280;67164;51.202;0.278;2023-01-24T12:28:06;103515.83;;;20.67;34.67
77975;BME280;67164;51.202;0.278;2023-01-24T12:30:32;103512.18;;;20.55;34.75
77975;BME280;67164;51.202;0.278;2023-01-24T12:33:03;103509.03;;;20.22;35.17
77975;BME280;67164;51.202;0.278;2023-01-24T12:35:24;103506.73;;;20.55;34.72
77975;BME280;67164;51.202;0.278;2023-01-24T12:37:51;103504.08;;;20.38;34.88
77975;BME280;67164;51.202;0.278;2023-01-24T12:40:28;103504.62;;;20.11;34.86
77975;BME280;67164;51.202;0.278;2023-01-24T12:42:47;103500.61;;;20.20;34.83
77975;BME280;67164;51.202;0.278;2023-01-24T12:45:05;103499.62;;;20.30;34.67
77975;BME280;67164;51.202;0.278;2023-01-24T12:47:33;103500.89;;;20.84;34.40
77975;BME280;67164;51.202;0.278;2023-01-24T12:50:02;103495.85;;;21.53;33.67
77975;BME280;67164;51.202;0.278;2023-01-24T12:52:23;103493.61;;;21.18;32.86
77975;BME280;67164;51.202;0.278;2023-01-24T12:55:00;103490.42;;;21.39;32.80